Time;durP1;ratioP1;P1;durP2;ratioP2;P2;SDS_P1;SDS_P2;PMS_P1;PMS_P2;Temp;Humidity;BMP_temperature;BMP_pressure;BME280_temperature;BME280_humidity;BME280_pressure;Samples;Min_cycle;Max_cycle;Signal;HPM_P1;HPM_P2
2022/10/26 00:02:04;;;;;;;11.85;8.27;;;10.20;99.90;;;;;;5042828;28;20040;-86
2022/10/26 00:04:49;;;;;;;13.77;7.63;;;10.20;99.90;;;;;;5044636;28;20056;-86
2022/10/26 00:07:33;;;;;;;13.38;8.10;;;10.20;99.90;;;;;;5042596;28;20041;-87
2022/10/26 00:09:59;;;;;;;13.32;7.90;;;10.20;99.90;;;;;;5029159;28;20045;-86
2022/10/26 00:15:53;;;;;;;11.25;8.75;;;10.10;99.90;;;;;;4968765;28;20556;-87
2022/10/26 00:18:42;;;;;;;12.43;8.45;;;10.50;99.90;;;;;;5013729;28;20044;-86
2022/10/26 00:22:02;;;;;;;10.02;9.02;;;10.10;99.90;;;;;;5021294;28;20102;-86
2022/10/26 00:24:37;;;;;;;13.45;8.55;;;10.10;99.90;;;;;;5027661;28;20033;-86
2022/10/26 00:27:05;;;;;;;14.80;9.73;;;10.10;99.90;;;;;;5038919;28;20952;-87
2022/10/26 00:29:55;;;;;;;24.00;10.88;;;10.10;99.90;;;;;;5028230;28;20495;-86
2022/10/26 00:32:49;;;;;;;10.27;8.40;;;10.10;99.90;;;;;;5031256;28;20033;-86
2022/10/26 00:44:04;;;;;;;14.90;10.18;;;9.90;99.90;;;;;;4955822;28;20054;-87
2022/10/26 00:47:49;;;;;;;14.48;8.70;;;9.90;99.90;;;;;;4969344;28;20098;-86
2022/10/26 00:50:55;;;;;;;10.10;8.82;;;9.90;99.90;;;;;;4931929;28;20055;-86
2022/10/26 00:53:55;;;;;;;16.92;9.95;;;9.90;99.90;;;;;;4916399;28;20156;-86
2022/10/26 01:08:09;;;;;;;13.38;11.20;;;9.80;99.90;;;;;;5006272;28;20084;-87
2022/10/26 01:11:59;;;;;;;16.40;9.93;;;9.70;99.90;;;;;;4951381;28;20045;-87
2022/10/26 01:15:22;;;;;;;13.05;9.68;;;9.70;99.90;;;;;;4939715;28;20123;-86
2022/10/26 01:19:05;;;;;;;14.77;9.38;;;9.70;99.90;;;;;;5028161;28;20090;-86
2022/10/26 01:33:31;;;;;;;11.63;10.05;;;9.60;99.90;;;;;;5052947;28;20086;-86
2022/10/26 01:36:45;;;;;;;12.82;9.63;;;9.60;99.90;;;;;;4991398;28;20041;-87
2022/10/26 01:47:01;;;;;;;17.33;12.60;;;9.50;99.90;;;;;;5067553;28;20038;-86
2022/10/26 01:49:49;;;;;;;16.02;12.00;;;9.70;99.90;;;;;;5013572;28;20047;-86
2022/10/26 02:00:33;;;;;;;16.40;12.73;;;9.50;99.90;;;;;;5068250;28;20039;-86
2022/10/26 02:03:29;;;;;;;21.40;12.48;;;9.40;99.90;;;;;;5060924;28;20091;-87
2022/10/26 02:06:13;;;;;;;15.55;11.15;;;9.40;99.90;;;;;;5028687;28;20048;-84
2022/10/26 02:09:16;;;;;;;14.23;11.50;;;9.40;99.90;;;;;;5046157;28;20103;-86
2022/10/26 02:11:45;;;;;;;17.50;11.32;;;9.40;99.90;;;;;;5045525;28;20132;-86
2022/10/26 02:14:21;;;;;;;13.25;10.13;;;9.30;99.90;;;;;;5043463;28;20491;-86
2022/10/26 02:17:12;;;;;;;15.88;12.95;;;9.40;99.90;;;;;;5028954;28;20045;-85
2022/10/26 02:19:50;;;;;;;15.50;11.10;;;9.40;99.90;;;;;;5027966;28;20040;-86
2022/10/26 02:22:25;;;;;;;18.40;13.50;;;9.40;99.90;;;;;;5041365;28;20041;-86
2022/10/26 02:24:53;;;;;;;16.40;12.17;;;9.40;99.90;;;;;;5046512;28;20117;-86
2022/10/26 02:27:41;;;;;;;12.15;10.95;;;9.40;99.90;;;;;;5045327;28;20284;-86
2022/10/26 02:30:08;;;;;;;23.17;14.07;;;9.40;99.90;;;;;;5031961;28;20101;-86
2022/10/26 02:32:38;;;;;;;15.77;11.82;;;9.40;99.90;;;;;;5047073;28;20041;-86
2022/10/26 02:35:04;;;;;;;18.67;12.77;;;9.30;99.90;;;;;;5046784;28;20069;-86
2022/10/26 02:37:36;;;;;;;20.02;13.10;;;9.30;99.90;;;;;;5028008;28;20127;-86
2022/10/26 02:40:09;;;;;;;23.45;13.38;;;9.30;99.90;;;;;;5044282;28;20043;-86
2022/10/26 02:42:44;;;;;;;14.90;11.68;;;9.20;99.90;;;;;;5042728;28;20051;-86
2022/10/26 02:45:15;;;;;;;17.48;13.00;;;9.30;99.90;;;;;;5042319;28;20041;-86
2022/10/26 02:47:41;;;;;;;12.90;11.60;;;9.30;99.90;;;;;;5065700;28;20041;-87
2022/10/26 02:50:07;;;;;;;23.15;13.35;;;9.20;99.90;;;;;;5030283;28;20124;-86
2022/10/26 02:52:50;;;;;;;21.02;14.60;;;9.30;99.90;;;;;;5043372;28;20422;-86
2022/10/26 02:55:23;;;;;;;21.52;15.00;;;9.30;99.90;;;;;;5045852;28;20088;-87
2022/10/26 02:57:53;;;;;;;23.70;14.52;;;9.30;99.90;;;;;;5025873;28;20434;-86
2022/10/26 03:00:19;;;;;;;22.13;13.70;;;9.30;99.90;;;;;;5046423;28;20368;-86
2022/10/26 03:02:58;;;;;;;19.02;14.30;;;9.30;99.90;;;;;;5045975;28;20039;-86
2022/10/26 03:05:26;;;;;;;15.50;12.90;;;9.30;99.90;;;;;;5029266;28;20068;-86
2022/10/26 03:07:53;;;;;;;16.88;12.65;;;9.30;99.90;;;;;;5047154;28;20118;-86
2022/10/26 03:10:19;;;;;;;27.02;15.18;;;10.10;99.90;;;;;;5044658;28;20406;-87
2022/10/26 03:12:46;;;;;;;15.68;13.20;;;9.40;99.90;;;;;;5048969;28;20498;-86
2022/10/26 03:15:11;;;;;;;17.40;14.45;;;9.40;99.90;;;;;;5026494;28;20091;-87
2022/10/26 03:17:37;;;;;;;17.58;14.13;;;9.40;99.90;;;;;;5049253;28;21437;-86
2022/10/26 03:20:03;;;;;;;21.00;15.30;;;9.40;99.90;;;;;;5046445;28;20040;-86
2022/10/26 03:22:29;;;;;;;19.38;14.52;;;9.40;99.90;;;;;;5041639;28;20047;-86
2022/10/26 03:24:54;;;;;;;20.13;15.00;;;9.50;99.90;;;;;;5041712;28;20402;-86
2022/10/26 03:27:20;;;;;;;16.58;14.85;;;9.70;99.90;;;;;;5028426;28;20506;-86
2022/10/26 03:29:46;;;;;;;19.20;14.98;;;9.40;99.90;;;;;;5029580;28;20135;-87
2022/10/26 03:32:11;;;;;;;30.98;16.95;;;9.50;99.90;;;;;;5031182;28;20040;-87
2022/10/26 03:34:37;;;;;;;25.73;14.20;;;9.40;99.90;;;;;;5030689;28;20082;-86
2022/10/26 03:37:02;;;;;;;24.63;15.65;;;10.00;99.90;;;;;;5030908;28;20041;-86
2022/10/26 03:39:28;;;;;;;17.17;15.13;;;9.40;99.90;;;;;;5027091;28;20124;-87
2022/10/26 03:41:54;;;;;;;22.55;15.07;;;9.50;99.90;;;;;;5042044;28;20103;-86
2022/10/26 03:44:20;;;;;;;20.00;15.82;;;9.40;99.90;;;;;;5043722;28;20060;-86
2022/10/26 03:46:46;;;;;;;19.90;14.98;;;9.50;99.90;;;;;;5029487;28;20461;-86
2022/10/26 03:49:12;;;;;;;23.63;16.58;;;10.20;99.90;;;;;;5030567;28;20116;-86
2022/10/26 03:51:37;;;;;;;24.33;15.20;;;9.50;99.90;;;;;;5031864;28;20041;-86
2022/10/26 03:54:06;;;;;;;18.02;15.32;;;9.40;99.90;;;;;;5028920;28;20512;-86
2022/10/26 03:56:31;;;;;;;19.80;15.30;;;9.50;99.90;;;;;;5044167;28;20032;-85
2022/10/26 03:58:57;;;;;;;26.23;16.48;;;9.80;99.90;;;;;;5031801;28;20044;-86
2022/10/26 04:01:23;;;;;;;18.50;14.63;;;9.40;99.90;;;;;;5045053;28;20645;-87
2022/10/26 04:03:48;;;;;;;17.77;14.45;;;9.50;99.90;;;;;;5027645;28;20039;-86
2022/10/26 04:06:14;;;;;;;16.55;14.82;;;9.40;99.90;;;;;;5033698;28;20503;-86
2022/10/26 04:08:39;;;;;;;18.40;14.77;;;9.40;99.90;;;;;;5047680;28;20045;-87
2022/10/26 04:11:05;;;;;;;16.23;14.48;;;9.40;99.90;;;;;;5042578;28;20047;-86
2022/10/26 04:13:31;;;;;;;17.60;14.35;;;9.40;99.90;;;;;;5039905;28;20116;-85
2022/10/26 04:15:57;;;;;;;17.48;14.65;;;9.40;99.90;;;;;;5056924;28;20040;-86
2022/10/26 04:18:22;;;;;;;18.90;15.23;;;9.40;99.90;;;;;;5063300;28;20039;-85
2022/10/26 04:20:48;;;;;;;23.08;15.73;;;9.40;99.90;;;;;;5040338;28;20036;-86
2022/10/26 04:23:18;;;;;;;20.67;15.57;;;9.40;99.90;;;;;;5041917;28;20032;-89
2022/10/26 04:25:44;;;;;;;20.58;14.52;;;10.00;99.90;;;;;;5060481;28;20040;-89
2022/10/26 04:28:11;;;;;;;25.33;15.85;;;9.40;99.90;;;;;;5036320;28;20032;-89
2022/10/26 04:30:38;;;;;;;23.30;15.48;;;9.40;99.90;;;;;;5034430;28;20037;-88
2022/10/26 04:36:44;;;;;;;23.15;15.93;;;9.50;99.90;;;;;;5040611;28;20036;-91
2022/10/26 04:39:10;;;;;;;23.95;16.70;;;10.60;99.90;;;;;;5034805;28;20410;-88
2022/10/26 04:41:49;;;;;;;20.13;16.02;;;9.90;99.90;;;;;;5060146;28;20032;-87
2022/10/26 04:44:27;;;;;;;19.17;16.30;;;9.90;99.90;;;;;;5041194;28;20043;-89
2022/10/26 04:47:34;;;;;;;20.50;16.95;;;10.00;99.90;;;;;;5029662;28;20036;-90
2022/10/26 11:41:07;;;;;;;4.28;1.83;;;18.80;99.90;;;;;;5042716;28;20031;-87
2022/10/26 12:31:48;;;;;;;10.00;1.92;;;19.70;99.90;;;;;;5048316;28;20055;-88
2022/10/26 12:34:38;;;;;;;11.55;2.30;;;19.70;99.90;;;;;;5016884;28;20041;-87
2022/10/26 12:37:06;;;;;;;12.20;3.10;;;19.60;99.90;;;;;;5031419;28;20064;-87
2022/10/26 12:39:40;;;;;;;10.20;2.38;;;19.50;99.90;;;;;;5045908;28;20082;-87
2022/10/26 12:42:28;;;;;;;14.02;2.35;;;19.30;99.90;;;;;;5014347;28;20119;-87
2022/10/26 12:44:54;;;;;;;7.85;2.65;;;19.70;99.90;;;;;;5010912;28;20411;-88
2022/10/26 12:47:29;;;;;;;6.47;2.03;;;19.10;99.90;;;;;;5031994;28;20044;-87
2022/10/26 12:50:07;;;;;;;6.82;2.83;;;19.40;99.90;;;;;;5031556;28;20083;-87
2022/10/26 12:52:38;;;;;;;7.50;2.28;;;19.10;99.90;;;;;;5032198;28;20450;-87
2022/10/26 12:55:34;;;;;;;16.58;2.50;;;19.10;99.90;;;;;;5029208;28;20051;-88
2022/10/26 12:58:15;;;;;;;11.30;2.75;;;19.10;99.90;;;;;;5030343;28;20492;-87
2022/10/26 13:00:58;;;;;;;14.98;3.20;;;19.20;99.90;;;;;;5028880;28;20938;-87
2022/10/26 13:03:33;;;;;;;20.13;3.60;;;19.20;99.90;;;;;;5013669;28;20095;-86
2022/10/26 13:06:19;;;;;;;9.73;2.87;;;19.20;99.90;;;;;;5040718;28;20071;-88
2022/10/26 13:08:52;;;;;;;6.13;2.75;;;19.10;99.90;;;;;;5047172;28;20145;-87
2022/10/26 13:11:41;;;;;;;12.63;3.08;;;19.00;99.90;;;;;;5047076;28;20036;-87
2022/10/26 13:14:27;;;;;;;7.05;2.25;;;18.90;99.90;;;;;;5033922;28;20156;-87
2022/10/26 13:16:53;;;;;;;13.43;3.85;;;18.90;99.90;;;;;;5047375;28;20399;-87
2022/10/26 13:19:53;;;;;;;6.35;2.15;;;18.70;99.90;;;;;;5033537;28;20116;-88
2022/10/26 13:22:20;;;;;;;10.05;2.65;;;18.70;99.90;;;;;;5017937;28;20522;-87
2022/10/26 13:25:00;;;;;;;26.83;3.33;;;18.70;99.90;;;;;;5034049;28;20055;-87
2022/10/26 13:27:39;;;;;;;7.97;3.38;;;18.60;99.90;;;;;;5036772;28;20075;-88
2022/10/26 13:30:08;;;;;;;8.02;2.50;;;18.60;99.90;;;;;;5029926;28;20041;-87
2022/10/26 13:36:48;;;;;;;7.78;3.05;;;18.70;99.90;;;;;;5011544;28;20060;-88
2022/10/26 13:40:29;;;;;;;6.63;2.63;;;18.60;99.90;;;;;;4952608;28;20046;-87
2022/10/26 14:35:40;;;;;;;9.43;2.80;;;17.90;99.90;;;;;;4884461;29;20128;-87
2022/10/26 14:38:20;;;;;;;5.18;2.03;;;17.90;99.90;;;;;;4855226;29;20564;-87
2022/10/26 14:40:48;;;;;;;13.43;3.13;;;17.80;99.90;;;;;;4887737;29;20095;-87
2022/10/26 14:43:24;;;;;;;12.02;2.47;;;17.80;99.90;;;;;;4872614;29;20140;-87
2022/10/26 14:45:56;;;;;;;14.00;4.65;;;17.80;99.90;;;;;;4869538;29;20684;-86
2022/10/26 14:48:33;;;;;;;15.77;2.97;;;17.70;99.90;;;;;;4869808;29;20076;-86
2022/10/26 14:51:02;;;;;;;5.85;2.90;;;17.60;99.90;;;;;;4910165;28;20043;-86
2022/10/26 14:53:35;;;;;;;7.53;2.70;;;17.70;99.90;;;;;;4961975;28;20051;-87
2022/10/26 14:56:03;;;;;;;8.95;2.38;;;17.50;99.90;;;;;;4995354;28;20786;-86
2022/10/26 14:58:31;;;;;;;7.75;2.53;;;17.40;99.90;;;;;;5041454;28;21080;-87
2022/10/26 15:01:21;;;;;;;12.50;3.38;;;17.90;99.90;;;;;;5044415;28;20075;-87
2022/10/26 15:04:00;;;;;;;12.55;2.70;;;17.30;99.90;;;;;;5011182;28;20044;-86
2022/10/26 15:06:28;;;;;;;17.80;3.00;;;17.30;99.90;;;;;;5042042;28;20037;-86
2022/10/26 15:08:59;;;;;;;9.90;3.17;;;17.60;99.90;;;;;;5026121;28;22176;-87
2022/10/26 15:11:26;;;;;;;9.48;2.38;;;17.20;99.90;;;;;;5028945;28;20049;-87
2022/10/26 15:13:54;;;;;;;11.88;2.58;;;17.20;99.90;;;;;;5014637;28;20487;-86
2022/10/26 15:16:22;;;;;;;12.93;3.42;;;17.00;99.90;;;;;;5044876;28;20037;-86
2022/10/26 15:18:53;;;;;;;13.95;2.72;;;17.10;99.90;;;;;;5026282;28;20040;-87
2022/10/26 15:21:25;;;;;;;11.00;2.67;;;17.10;99.90;;;;;;5029019;28;20036;-86
2022/10/26 15:23:52;;;;;;;7.70;2.72;;;17.30;99.90;;;;;;5032482;28;20101;-86
2022/10/26 15:26:18;;;;;;;10.10;2.80;;;17.00;99.90;;;;;;5029670;28;20044;-87
2022/10/26 15:28:44;;;;;;;7.40;3.38;;;17.00;99.90;;;;;;5026941;28;20046;-87
2022/10/26 15:31:09;;;;;;;14.82;3.75;;;16.90;99.90;;;;;;5045327;28;20040;-87
2022/10/26 15:33:56;;;;;;;4.88;2.85;;;17.40;99.90;;;;;;5029127;28;20135;-86
2022/10/26 15:36:29;;;;;;;14.32;3.10;;;16.90;99.90;;;;;;5023676;28;20116;-87
2022/10/26 15:38:58;;;;;;;10.57;2.65;;;17.50;99.90;;;;;;5024241;28;20586;-87
2022/10/26 15:41:34;;;;;;;6.00;1.98;;;16.90;99.90;;;;;;5026381;28;20056;-87
2022/10/26 15:44:05;;;;;;;6.90;2.05;;;16.80;99.90;;;;;;5013784;28;20049;-88
2022/10/26 15:46:37;;;;;;;4.75;2.25;;;16.80;99.90;;;;;;5038227;28;20387;-88
2022/10/26 15:49:05;;;;;;;11.95;2.20;;;16.80;99.90;;;;;;5029828;28;20040;-86
2022/10/26 19:22:11;;;;;;;10.35;6.22;;;14.90;99.90;;;;;;5083634;28;20067;-88
2022/10/26 20:02:00;;;;;;;9.95;5.80;;;14.80;99.90;;;;;;5126412;28;20026;-89
2022/10/26 20:05:10;;;;;;;11.10;6.43;;;14.70;99.90;;;;;;5056109;28;20454;-87
2022/10/26 20:07:37;;;;;;;9.68;5.82;;;14.70;99.90;;;;;;5071964;27;20135;-86
2022/10/26 20:10:03;;;;;;;12.38;6.45;;;14.70;99.90;;;;;;5078543;28;20118;-85
2022/10/26 20:12:29;;;;;;;12.90;6.00;;;14.70;99.90;;;;;;5095903;27;20043;-87
2022/10/26 20:15:52;;;;;;;22.08;7.13;;;14.60;99.90;;;;;;5088863;28;20035;-88
2022/10/26 20:18:19;;;;;;;12.98;6.43;;;14.60;99.90;;;;;;5122710;27;20126;-87
2022/10/26 20:20:52;;;;;;;17.05;6.63;;;14.60;99.90;;;;;;5090366;28;20047;-87
2022/10/26 20:23:28;;;;;;;12.20;6.00;;;14.50;99.90;;;;;;5073483;28;20054;-87
2022/10/26 20:25:59;;;;;;;9.32;6.32;;;14.70;99.90;;;;;;5088446;28;20074;-87
2022/10/26 20:28:25;;;;;;;10.07;5.97;;;14.50;99.90;;;;;;5074057;28;20031;-87
2022/10/26 20:30:52;;;;;;;12.68;6.07;;;14.60;99.90;;;;;;5093103;28;20028;-87
2022/10/26 20:33:23;;;;;;;12.13;6.13;;;14.50;99.90;;;;;;5100303;28;20122;-87
2022/10/26 20:35:54;;;;;;;9.40;6.05;;;14.40;99.90;;;;;;5093966;27;20532;-87
2022/10/26 20:38:20;;;;;;;7.45;6.07;;;14.70;99.90;;;;;;5107398;28;20099;-87
2022/10/26 20:40:57;;;;;;;14.15;6.28;;;14.30;99.90;;;;;;5095475;27;20622;-87
2022/10/26 20:43:24;;;;;;;11.63;5.95;;;14.40;99.90;;;;;;5110484;27;20035;-87
2022/10/26 20:45:54;;;;;;;9.23;5.93;;;14.40;99.90;;;;;;5114240;27;20034;-87
2022/10/26 20:48:20;;;;;;;12.45;5.28;;;14.30;99.90;;;;;;5109068;27;20035;-87
2022/10/26 20:51:13;;;;;;;9.43;5.55;;;14.30;99.90;;;;;;5114477;27;20113;-87
2022/10/26 20:53:47;;;;;;;9.90;5.88;;;14.30;99.90;;;;;;5112486;27;20035;-87
2022/10/26 20:56:32;;;;;;;9.48;5.18;;;14.40;99.90;;;;;;5108754;27;20031;-87
2022/10/26 20:59:02;;;;;;;9.27;4.82;;;14.30;99.90;;;;;;5112580;27;20054;-87
2022/10/26 21:01:32;;;;;;;12.15;5.13;;;14.30;99.90;;;;;;5114114;27;20601;-87
2022/10/26 21:04:00;;;;;;;8.77;5.82;;;14.30;99.90;;;;;;5102135;27;20832;-87
2022/10/26 21:06:26;;;;;;;11.82;5.25;;;14.70;99.90;;;;;;5127175;27;20039;-87
2022/10/26 21:08:55;;;;;;;10.23;5.22;;;14.30;99.90;;;;;;5135693;27;20388;-87
2022/10/26 21:11:23;;;;;;;11.35;5.45;;;14.30;99.90;;;;;;5097978;27;20043;-87
2022/10/26 21:13:51;;;;;;;9.13;4.95;;;14.20;99.90;;;;;;5112341;27;20484;-87
2022/10/26 21:16:20;;;;;;;8.95;4.40;;;14.90;99.90;;;;;;5108885;27;20072;-87
2022/10/26 21:18:48;;;;;;;6.82;3.85;;;14.20;99.90;;;;;;5105035;27;20047;-87
2022/10/26 21:21:14;;;;;;;12.65;4.38;;;14.20;99.90;;;;;;5089277;27;20088;-87
2022/10/26 21:23:43;;;;;;;13.07;4.18;;;14.20;99.90;;;;;;5105376;27;20047;-87
2022/10/26 21:26:12;;;;;;;9.30;3.65;;;14.20;99.90;;;;;;5125813;27;20564;-87
2022/10/26 21:28:46;;;;;;;12.65;3.63;;;14.30;99.90;;;;;;5106868;27;20036;-86
2022/10/26 21:31:14;;;;;;;14.60;3.60;;;14.20;99.90;;;;;;5106565;27;20489;-87
2022/10/26 21:33:40;;;;;;;13.95;3.00;;;14.80;99.90;;;;;;5093304;27;20534;-87
2022/10/26 21:36:10;;;;;;;12.82;3.75;;;14.30;99.90;;;;;;5107662;27;20071;-87
2022/10/26 21:38:36;;;;;;;12.70;3.65;;;14.30;99.90;;;;;;5129517;27;20300;-87
2022/10/26 21:41:16;;;;;;;8.65;3.10;;;14.30;99.90;;;;;;5088203;27;20035;-87
2022/10/26 21:43:48;;;;;;;8.25;3.33;;;14.30;99.90;;;;;;5105295;27;20046;-87
2022/10/26 21:46:18;;;;;;;6.43;2.70;;;14.30;99.90;;;;;;5123179;27;20027;-87
2022/10/26 21:48:45;;;;;;;7.03;2.53;;;14.60;99.90;;;;;;5120777;27;20087;-87
2022/10/26 21:51:19;;;;;;;7.97;3.13;;;14.30;99.90;;;;;;5084057;27;20069;-87
2022/10/26 21:53:45;;;;;;;6.60;2.67;;;14.30;99.90;;;;;;5087677;27;20042;-87
2022/10/26 21:56:15;;;;;;;9.88;2.60;;;14.30;99.90;;;;;;5104184;27;20076;-87
2022/10/26 21:58:41;;;;;;;7.28;3.05;;;14.30;99.90;;;;;;5087664;27;20488;-87
2022/10/26 22:01:11;;;;;;;12.00;3.10;;;14.20;99.90;;;;;;5105265;27;20054;-87
2022/10/26 22:03:37;;;;;;;17.17;3.28;;;14.20;99.90;;;;;;5103820;27;20043;-86
2022/10/26 22:06:04;;;;;;;14.68;2.88;;;14.30;99.90;;;;;;5102121;27;20480;-87
2022/10/26 22:08:30;;;;;;;24.48;3.70;;;14.10;99.90;;;;;;5089468;27;20103;-87
2022/10/26 22:11:14;;;;;;;12.70;2.50;;;14.10;99.90;;;;;;5122382;27;20040;-86
2022/10/26 22:13:41;;;;;;;17.65;2.95;;;13.90;99.90;;;;;;5087379;27;20043;-87
2022/10/26 22:16:13;;;;;;;11.13;2.75;;;14.50;99.90;;;;;;5121524;27;20119;-87
2022/10/26 22:18:43;;;;;;;20.10;4.20;;;14.00;99.90;;;;;;5087941;27;20043;-87
2022/10/26 22:21:10;;;;;;;10.40;3.85;;;14.00;99.90;;;;;;5099213;27;20284;-87
2022/10/26 22:23:38;;;;;;;12.25;3.63;;;13.90;99.90;;;;;;5105076;27;20107;-87
2022/10/26 22:26:05;;;;;;;13.75;3.00;;;13.80;99.90;;;;;;5087076;27;20043;-87
2022/10/26 22:29:00;;;;;;;18.33;3.22;;;13.80;99.90;;;;;;5105152;27;20041;-87
2022/10/26 22:35:30;;;;;;;12.55;3.00;;;13.80;99.90;;;;;;5120699;27;20042;-87
2022/10/26 22:38:35;;;;;;;13.38;3.33;;;13.80;99.90;;;;;;5084174;27;20485;-87
2022/10/26 22:41:32;;;;;;;16.38;3.05;;;13.80;99.90;;;;;;5101078;27;20034;-86
